createdAt,value
2022-08-01T00:00:11.665Z,98111.56
2022-08-01T00:02:40.257Z,98109.69
2022-08-01T00:05:10.674Z,98107.22
2022-08-01T00:07:40.576Z,98108.03
2022-08-01T00:10:13.224Z,98108.03
2022-08-01T00:12:41.931Z,98104.31
2022-08-01T00:15:12.325Z,98101.63
2022-08-01T00:17:41.077Z,98104.53
2022-08-01T00:20:12.175Z,98102.66
2022-08-01T00:22:42.089Z,98098.31
2022-08-01T00:25:10.993Z,98098.31
2022-08-01T00:27:39.439Z,98099.97
2022-08-01T00:30:13.538Z,98091.88
2022-08-01T00:32:43.354Z,98091.22
2022-08-01T00:35:12.491Z,98093.75
2022-08-01T00:37:42.234Z,98090.22
2022-08-01T00:40:11.466Z,98091.06
2022-08-01T00:42:43.505Z,98093.94
2022-08-01T00:45:12.809Z,98095.63
2022-08-01T00:47:41.495Z,98099.97
2022-08-01T00:50:11.515Z,98096.44
2022-08-01T00:52:41.361Z,98096.44
2022-08-01T00:55:14.958Z,98095.63
2022-08-01T00:58:05.218Z,98098.31
2022-08-01T01:00:44.841Z,98097.44
2022-08-01T01:03:26.363Z,98100.16
2022-08-01T01:06:23.329Z,98099.31
2022-08-01T01:09:01.033Z,98102.00
2022-08-01T01:11:39.317Z,98100.34
2022-08-01T01:14:11.949Z,98104.91
2022-08-01T01:16:40.627Z,98104.91
2022-08-01T01:19:11.424Z,98097.66
2022-08-01T01:21:58.854Z,98095.97
2022-08-01T01:24:36.417Z,98093.28
2022-08-01T01:27:11.020Z,98083.53
2022-08-01T01:29:58.647Z,98088.09
2022-08-01T01:32:34.944Z,98081.69
2022-08-01T01:35:06.503Z,98086.22
2022-08-01T01:37:35.267Z,98087.88
2022-08-01T01:40:04.642Z,98082.50
2022-08-01T01:42:33.180Z,98087.88
2022-08-01T01:45:03.288Z,98087.88
2022-08-01T01:47:31.785Z,98084.38
2022-08-01T01:50:00.262Z,98087.88
2022-08-01T01:52:28.965Z,98082.50
2022-08-01T01:54:57.451Z,98084.38
2022-08-01T01:57:26.068Z,98084.38
2022-08-01T01:59:54.542Z,98088.94
2022-08-01T02:02:24.496Z,98078.97
2022-08-01T02:04:53.660Z,98085.41
2022-08-01T02:07:24.793Z,98083.53
2022-08-01T02:09:53.845Z,98080.84
2022-08-01T02:12:23.384Z,98083.53
2022-08-01T02:14:53.285Z,98077.31
2022-08-01T02:17:23.220Z,98071.94
2022-08-01T02:19:51.641Z,98082.72
2022-08-01T02:22:23.571Z,98075.63
2022-08-01T02:24:56.641Z,98077.31
2022-08-01T02:27:27.353Z,98080.84
2022-08-01T02:29:59.667Z,98071.94
2022-08-01T02:32:34.255Z,98072.75
2022-08-01T02:35:03.586Z,98076.50
2022-08-01T02:37:33.886Z,98070.25
2022-08-01T02:40:02.410Z,98077.50
2022-08-01T02:42:31.986Z,98074.81
2022-08-01T02:45:00.503Z,98078.34
2022-08-01T02:47:30.506Z,98082.88
2022-08-01T02:49:59.045Z,98082.88
2022-08-01T02:52:27.928Z,98074.81
2022-08-01T02:54:57.562Z,98075.84
2022-08-01T02:57:32.825Z,98076.84
2022-08-01T03:00:15.608Z,98078.53
2022-08-01T03:02:46.410Z,98082.88
2022-08-01T03:05:15.324Z,98082.25
2022-08-01T03:07:44.396Z,98081.25
2022-08-01T03:10:17.210Z,98082.25
2022-08-01T03:12:45.726Z,98079.56
2022-08-01T03:15:16.832Z,98069.81
2022-08-01T03:17:47.754Z,98076.03
2022-08-01T03:20:17.585Z,98083.28
2022-08-01T03:22:46.416Z,98082.25
2022-08-01T03:25:15.469Z,98082.25
2022-08-01T03:27:44.802Z,98080.59
2022-08-01T03:30:16.551Z,98088.66
2022-08-01T03:32:47.325Z,98086.81
2022-08-01T03:35:15.765Z,98083.50
2022-08-01T03:38:14.171Z,98083.50
2022-08-01T03:40:41.689Z,98089.72
2022-08-01T03:43:13.070Z,98085.97
2022-08-01T03:45:43.004Z,98089.72
2022-08-01T03:48:16.390Z,98094.28
2022-08-01T03:50:48.066Z,98093.25
2022-08-01T03:53:16.577Z,98092.41
2022-08-01T03:55:45.371Z,98099.66
2022-08-01T03:58:13.864Z,98093.25
2022-08-01T04:00:42.461Z,98096.75
2022-08-01T04:03:15.200Z,98095.09
2022-08-01T04:05:43.915Z,98101.31
2022-08-01T04:08:12.509Z,98095.94
2022-08-01T04:10:40.969Z,98102.97
2022-08-01T04:13:09.566Z,98102.97
2022-08-01T04:15:38.029Z,98109.19
2022-08-01T04:18:07.895Z,98101.09
2022-08-01T04:20:37.796Z,98100.94
2022-08-01T04:23:06.604Z,98105.50
2022-08-01T04:25:36.148Z,98093.88
2022-08-01T04:28:06.601Z,98100.94
2022-08-01T04:30:38.088Z,98107.13
2022-08-01T04:33:07.341Z,98103.63
2022-08-01T04:36:01.858Z,98105.28
2022-08-01T04:38:28.460Z,98098.06
2022-08-01T04:40:56.919Z,98100.75
2022-08-01T04:43:25.426Z,98098.88
2022-08-01T04:45:53.911Z,98102.41
2022-08-01T04:48:23.076Z,98112.13
2022-08-01T04:50:53.263Z,98105.94
2022-08-01T04:53:22.985Z,98101.34
2022-08-01T04:55:51.700Z,98103.06
2022-08-01T04:58:20.235Z,98105.75
2022-08-01T05:00:48.810Z,98103.06
2022-08-01T05:03:17.349Z,98099.31
2022-08-01T05:05:45.954Z,98107.00
2022-08-01T05:08:17.428Z,98109.69
2022-08-01T05:10:46.112Z,98108.03
2022-08-01T05:13:14.596Z,98111.19
2022-08-01T05:15:43.119Z,98116.78
2022-08-01T05:18:11.550Z,98116.38
2022-08-01T05:20:40.540Z,98110.59
2022-08-01T05:23:10.735Z,98109.56
2022-08-01T05:25:57.410Z,98105.78
2022-08-01T05:28:26.835Z,98107.09
2022-08-01T05:30:56.012Z,98110.59
2022-08-01T05:33:24.807Z,98106.47
2022-08-01T05:35:53.223Z,98098.16
2022-08-01T05:38:21.856Z,98098.03
2022-08-01T05:40:51.879Z,98094.94
2022-08-01T05:43:20.502Z,98089.09
2022-08-01T05:45:50.247Z,98093.25
2022-08-01T05:48:18.682Z,98102.56
2022-08-01T05:50:48.764Z,98099.72
2022-08-01T05:53:17.218Z,98102.38
2022-08-01T05:55:45.682Z,98099.44
2022-08-01T05:58:15.516Z,98101.09
2022-08-01T06:00:43.897Z,98093.66
2022-08-01T06:03:13.498Z,98098.28
2022-08-01T06:05:41.890Z,98107.13
2022-08-01T06:08:10.355Z,98102.94
2022-08-01T06:10:38.805Z,98108.16
2022-08-01T06:13:07.302Z,98112.50
2022-08-01T06:15:37.182Z,98118.38
2022-08-01T06:18:06.080Z,98117.56
2022-08-01T06:20:34.581Z,98114.25
2022-08-01T06:23:22.496Z,98102.78
2022-08-01T06:25:54.344Z,98111.75
2022-08-01T06:28:22.915Z,98121.13
2022-08-01T06:30:52.952Z,98118.97
2022-08-01T06:33:23.081Z,98117.91
2022-08-01T06:35:51.638Z,98115.47
2022-08-01T06:38:20.199Z,98113.44
2022-08-01T06:40:48.961Z,98119.00
2022-08-01T06:43:17.755Z,98110.34
2022-08-01T06:45:46.216Z,98120.72
2022-08-01T06:48:16.023Z,98125.56
2022-08-01T06:50:44.545Z,98122.41
2022-08-01T06:53:13.035Z,98121.56
2022-08-01T06:55:41.610Z,98124.91
2022-08-01T06:58:10.302Z,98124.72
2022-08-01T07:00:38.761Z,98125.56
2022-08-01T07:03:07.287Z,98122.91
2022-08-01T07:05:37.473Z,98121.25
2022-08-01T07:08:07.257Z,98125.31
2022-08-01T07:10:35.707Z,98122.09
2022-08-01T07:13:04.256Z,98124.22
2022-08-01T07:15:32.814Z,98115.19
2022-08-01T07:18:04.741Z,98115.41
2022-08-01T07:20:37.962Z,98116.00
2022-08-01T07:23:22.521Z,98109.97
2022-08-01T07:25:55.933Z,98108.56
2022-08-01T07:28:26.705Z,98105.47
2022-08-01T07:30:55.223Z,98109.69
2022-08-01T07:33:23.992Z,98116.91
2022-08-01T07:35:52.558Z,98107.22
2022-08-01T07:38:22.886Z,98108.94
2022-08-01T07:40:51.392Z,98106.41
2022-08-01T07:43:19.847Z,98108.00
2022-08-01T07:45:48.379Z,98110.59
2022-08-01T07:48:17.100Z,98108.44
2022-08-01T07:50:46.289Z,98107.81
2022-08-01T07:53:14.949Z,98114.09
2022-08-01T07:55:44.809Z,98107.13
2022-08-01T07:58:14.956Z,98112.34
2022-08-01T08:00:43.790Z,98104.00
2022-08-01T08:03:12.386Z,98104.00
2022-08-01T08:05:58.697Z,98100.66
2022-08-01T08:08:28.608Z,98099.19
2022-08-01T08:10:58.492Z,98103.59
2022-08-01T08:13:26.981Z,98105.22
2022-08-01T08:15:55.455Z,98105.38
2022-08-01T08:18:23.921Z,98108.59
2022-08-01T08:20:52.421Z,98111.00
2022-08-01T08:23:42.071Z,98109.69
2022-08-01T08:26:13.808Z,98106.47
2022-08-01T08:28:42.364Z,98109.00
2022-08-01T08:31:25.201Z,98117.50
2022-08-01T08:33:59.369Z,98118.13
2022-08-01T08:36:31.449Z,98120.16
2022-08-01T08:39:01.666Z,98113.56
2022-08-01T08:41:37.772Z,98114.25
2022-08-01T08:44:10.102Z,98120.44
2022-08-01T08:46:43.618Z,98121.31
2022-08-01T08:49:13.218Z,98119.06
2022-08-01T08:51:42.194Z,98121.97
2022-08-01T08:54:12.673Z,98120.03
2022-08-01T08:56:42.813Z,98120.69
2022-08-01T08:59:11.272Z,98119.25
2022-08-01T09:01:39.723Z,98127.94
2022-08-01T09:04:08.274Z,98126.38
2022-08-01T09:06:36.759Z,98126.84
2022-08-01T09:09:05.742Z,98126.78
2022-08-01T09:11:34.429Z,98126.13
2022-08-01T09:14:09.987Z,98140.78
2022-08-01T09:16:39.641Z,98140.63
2022-08-01T09:19:16.126Z,98138.00
2022-08-01T09:22:04.543Z,98144.53
2022-08-01T09:24:33.807Z,98141.00
2022-08-01T09:27:03.390Z,98133.00
2022-08-01T09:29:37.213Z,98147.81
2022-08-01T09:32:14.133Z,98139.59
2022-08-01T09:34:45.142Z,98142.63
2022-08-01T09:37:15.250Z,98147.44
2022-08-01T09:39:46.490Z,98145.19
2022-08-01T09:42:28.404Z,98147.56
2022-08-01T09:45:00.084Z,98145.47
2022-08-01T09:47:39.826Z,98149.16
2022-08-01T09:50:11.286Z,98156.94
2022-08-01T09:52:41.214Z,98151.22
2022-08-01T09:55:11.192Z,98153.91
2022-08-01T09:57:39.760Z,98150.50
2022-08-01T10:00:35.714Z,98151.31
2022-08-01T10:03:22.339Z,98152.00
2022-08-01T10:05:54.408Z,98150.84
2022-08-01T10:08:24.301Z,98149.94
2022-08-01T10:11:09.446Z,98153.06
2022-08-01T10:13:40.775Z,98157.47
2022-08-01T10:16:10.801Z,98146.69
2022-08-01T10:18:39.890Z,98149.81
2022-08-01T10:21:10.779Z,98146.69
2022-08-01T10:23:41.204Z,98144.22
2022-08-01T10:26:11.424Z,98143.06
2022-08-01T10:28:40.514Z,98150.38
2022-08-01T10:31:12.378Z,98149.81
2022-08-01T10:33:50.773Z,98147.56
2022-08-01T10:36:22.820Z,98148.59
2022-08-01T10:38:53.804Z,98141.72
2022-08-01T10:41:23.058Z,98144.34
2022-08-01T10:43:52.716Z,98139.59
2022-08-01T10:46:22.617Z,98142.75
2022-08-01T10:48:58.814Z,98131.38
2022-08-01T10:51:52.943Z,98148.88
2022-08-01T10:54:16.687Z,98142.03
2022-08-01T10:56:46.714Z,98145.09
2022-08-01T10:59:50.205Z,98138.44
2022-08-01T11:02:12.060Z,98138.72
2022-08-01T11:04:50.258Z,98139.94
2022-08-01T11:07:20.991Z,98140.06
2022-08-01T11:10:05.203Z,98140.00
2022-08-01T11:12:44.294Z,98143.78
2022-08-01T11:15:29.978Z,98145.81
2022-08-01T11:18:02.599Z,98153.22
2022-08-01T11:20:32.570Z,98151.59
2022-08-01T11:23:26.539Z,98154.38
2022-08-01T11:26:29.117Z,98151.72
2022-08-01T11:29:22.879Z,98156.72
2022-08-01T11:31:52.945Z,98151.34
2022-08-01T11:34:26.713Z,98155.38
2022-08-01T11:37:30.649Z,98152.38
2022-08-01T11:40:19.644Z,98153.34
2022-08-01T11:42:48.345Z,98158.41
2022-08-01T11:45:18.690Z,98148.91
2022-08-01T11:47:49.931Z,98153.72
2022-08-01T11:50:39.062Z,98151.94
2022-08-01T11:53:09.227Z,98151.94
2022-08-01T11:55:39.888Z,98146.03
2022-08-01T11:58:22.403Z,98152.81
2022-08-01T12:00:57.206Z,98149.28
2022-08-01T12:03:33.137Z,98138.59
2022-08-01T12:06:04.290Z,98135.00
2022-08-01T12:08:35.856Z,98131.50
2022-08-01T12:11:06.889Z,98131.59
2022-08-01T12:13:43.137Z,98133.44
2022-08-01T12:16:11.954Z,98139.22
2022-08-01T12:18:41.491Z,98127.94
2022-08-01T12:21:11.321Z,98125.72
2022-08-01T12:23:39.793Z,98125.56
2022-08-01T12:26:08.296Z,98131.78
2022-08-01T12:28:55.186Z,98128.03
2022-08-01T12:31:33.976Z,98125.47
2022-08-01T12:34:30.006Z,98127.59
2022-08-01T12:37:00.921Z,98120.81
2022-08-01T12:39:34.794Z,98129.47
2022-08-01T12:42:03.422Z,98128.28
2022-08-01T12:44:32.407Z,98122.59
2022-08-01T12:47:01.746Z,98123.03
2022-08-01T12:49:30.246Z,98119.72
2022-08-01T12:52:00.105Z,98122.59
2022-08-01T12:54:28.688Z,98119.34
2022-08-01T12:56:58.179Z,98107.66
2022-08-01T12:59:27.673Z,98113.97
2022-08-01T13:01:59.417Z,98110.66
2022-08-01T13:04:28.125Z,98106.47
2022-08-01T13:06:56.731Z,98117.59
2022-08-01T13:09:27.507Z,98110.53
2022-08-01T13:12:04.290Z,98102.09
2022-08-01T13:14:45.629Z,98106.44
2022-08-01T13:17:15.819Z,98110.91
2022-08-01T13:19:45.131Z,98101.03
2022-08-01T13:22:13.607Z,98094.44
2022-08-01T13:24:43.469Z,98104.00
2022-08-01T13:27:24.357Z,98106.25
2022-08-01T13:29:54.417Z,98100.22
2022-08-01T13:32:30.023Z,98108.34
2022-08-01T13:35:06.124Z,98113.28
2022-08-01T13:37:34.756Z,98107.34
2022-08-01T13:40:05.025Z,98109.00
2022-08-01T13:42:33.452Z,98101.72
2022-08-01T13:45:02.933Z,98095.69
2022-08-01T13:47:32.759Z,98101.28
2022-08-01T13:50:03.926Z,98104.81
2022-08-01T13:52:32.794Z,98101.47
2022-08-01T13:55:02.275Z,98111.28
2022-08-01T13:57:36.660Z,98105.06
2022-08-01T14:00:07.846Z,98099.69
2022-08-01T14:02:36.337Z,98099.09
2022-08-01T14:05:05.209Z,98097.88
2022-08-01T14:07:33.698Z,98101.19
2022-08-01T14:10:18.439Z,98102.88
2022-08-01T14:12:50.639Z,98104.34
2022-08-01T14:15:38.712Z,98107.44
2022-08-01T14:18:09.504Z,98102.06
2022-08-01T14:20:39.039Z,98096.03
2022-08-01T14:23:08.647Z,98103.53
2022-08-01T14:26:01.639Z,98102.47
2022-08-01T14:28:29.358Z,98100.81
2022-08-01T14:30:58.117Z,98112.84
2022-08-01T14:33:26.730Z,98112.19
2022-08-01T14:36:05.393Z,98110.31
2022-08-01T14:38:35.422Z,98107.44
2022-08-01T14:41:04.793Z,98121.53
2022-08-01T14:43:34.960Z,98120.72
2022-08-01T14:46:04.667Z,98128.41
2022-08-01T14:48:33.495Z,98126.34
2022-08-01T14:51:03.940Z,98121.16
2022-08-01T14:53:34.424Z,98125.31
2022-08-01T14:56:05.148Z,98116.03
2022-08-01T14:58:34.962Z,98121.78
2022-08-01T15:01:03.507Z,98117.06
2022-08-01T15:03:32.789Z,98124.97
2022-08-01T15:06:01.514Z,98119.19
2022-08-01T15:08:31.203Z,98123.28
2022-08-01T15:10:59.642Z,98123.88
2022-08-01T15:13:28.116Z,98135.75
2022-08-01T15:16:00.145Z,98130.47
2022-08-01T15:18:29.348Z,98131.63
2022-08-01T15:20:58.421Z,98126.19
2022-08-01T15:23:26.918Z,98129.88
2022-08-01T15:25:55.404Z,98130.09
2022-08-01T15:28:24.007Z,98132.97
2022-08-01T15:30:52.482Z,98135.94
2022-08-01T15:33:22.811Z,98129.50
2022-08-01T15:35:52.777Z,98133.69
2022-08-01T15:38:22.765Z,98131.84
2022-08-01T15:40:51.429Z,98137.59
2022-08-01T15:43:20.016Z,98136.50
2022-08-01T15:45:49.712Z,98139.56
2022-08-01T15:48:18.425Z,98125.09
2022-08-01T15:50:48.326Z,98129.84
2022-08-01T15:53:16.944Z,98130.47
2022-08-01T15:55:52.205Z,98124.69
2022-08-01T15:58:23.466Z,98127.78
2022-08-01T16:00:51.983Z,98130.22
2022-08-01T16:03:22.011Z,98132.31
2022-08-01T16:05:51.997Z,98122.59
2022-08-01T16:08:20.513Z,98132.78
2022-08-01T16:10:49.135Z,98121.88
2022-08-01T16:13:17.973Z,98131.19
2022-08-01T16:15:46.453Z,98132.28
2022-08-01T16:18:16.250Z,98131.22
2022-08-01T16:20:46.079Z,98125.81
2022-08-01T16:23:16.560Z,98135.66
2022-08-01T16:25:45.461Z,98134.41
2022-08-01T16:28:14.547Z,98130.38
2022-08-01T16:30:48.876Z,98129.03
2022-08-01T16:33:45.248Z,98129.44
2022-08-01T16:36:17.554Z,98130.69
2022-08-01T16:38:47.627Z,98139.19
2022-08-01T16:41:19.304Z,98129.56
2022-08-01T16:43:53.318Z,98134.13
2022-08-01T16:46:25.121Z,98136.44
2022-08-01T16:48:54.096Z,98130.97
2022-08-01T16:51:22.740Z,98132.53
2022-08-01T16:53:52.652Z,98139.94
2022-08-01T16:56:21.550Z,98134.56
2022-08-01T16:58:50.040Z,98141.25
2022-08-01T17:02:01.298Z,98139.97
2022-08-01T17:04:08.079Z,98147.91
2022-08-01T17:06:36.543Z,98149.28
2022-08-01T17:09:06.683Z,98153.63
2022-08-01T17:11:35.169Z,98147.81
2022-08-01T17:14:03.612Z,98158.81
2022-08-01T17:16:32.453Z,98151.94
2022-08-01T17:19:00.974Z,98161.50
2022-08-01T17:21:29.538Z,98154.63
2022-08-01T17:23:58.137Z,98157.03
2022-08-01T17:26:27.984Z,98158.81
2022-08-01T17:28:56.522Z,98157.22
2022-08-01T17:31:25.157Z,98156.41
2022-08-01T17:33:55.172Z,98153.06
2022-08-01T17:36:23.921Z,98154.41
2022-08-01T17:38:52.578Z,98157.66
2022-08-01T17:41:21.153Z,98156.84
2022-08-01T17:43:51.016Z,98161.78
2022-08-01T17:46:19.485Z,98160.50
2022-08-01T17:48:48.011Z,98161.78
2022-08-01T17:51:22.132Z,98172.84
2022-08-01T17:53:56.692Z,98172.97
2022-08-01T17:56:26.800Z,98178.25
2022-08-01T17:58:56.815Z,98175.91
2022-08-01T18:01:26.986Z,98178.41
2022-08-01T18:03:57.747Z,98187.44
2022-08-01T18:06:26.809Z,98183.44
2022-08-01T18:08:59.684Z,98188.00
2022-08-01T18:11:37.252Z,98189.56
2022-08-01T18:14:07.940Z,98189.97
2022-08-01T18:16:36.441Z,98186.44
2022-08-01T18:19:06.712Z,98194.72
2022-08-01T18:21:38.549Z,98197.41
2022-08-01T18:24:10.041Z,98193.84
2022-08-01T18:26:38.912Z,98191.59
2022-08-01T18:29:10.013Z,98201.66
2022-08-01T18:31:41.037Z,98189.03
2022-08-01T18:34:09.506Z,98208.06
2022-08-01T18:36:40.344Z,98207.88
2022-08-01T18:39:10.590Z,98212.19
2022-08-01T18:41:39.473Z,98226.50
2022-08-01T18:44:09.669Z,98221.28
2022-08-01T18:46:39.318Z,98226.22
2022-08-01T18:49:09.602Z,98234.13
2022-08-01T18:51:43.844Z,98231.19
2022-08-01T18:54:12.919Z,98224.75
2022-08-01T18:56:42.323Z,98225.19
2022-08-01T18:59:12.217Z,98231.06
2022-08-01T19:01:40.740Z,98226.66
2022-08-01T19:04:09.390Z,98230.97
2022-08-01T19:06:38.223Z,98241.47
2022-08-01T19:09:07.526Z,98236.69
2022-08-01T19:11:36.347Z,98247.91
2022-08-01T19:14:05.013Z,98235.78
2022-08-01T19:16:35.062Z,98247.66
2022-08-01T19:19:06.885Z,98250.19
2022-08-01T19:21:35.753Z,98242.94
2022-08-01T19:24:23.063Z,98247.09
2022-08-01T19:26:53.829Z,98247.28
2022-08-01T19:29:23.803Z,98250.19
2022-08-01T19:32:06.505Z,98247.66
2022-08-01T19:34:36.820Z,98250.63
2022-08-01T19:37:05.575Z,98246.84
2022-08-01T19:39:37.448Z,98251.66
2022-08-01T19:42:06.158Z,98254.81
2022-08-01T19:44:34.688Z,98266.78
2022-08-01T19:47:04.985Z,98274.22
2022-08-01T19:49:33.860Z,98275.72
2022-08-01T19:52:03.629Z,98270.25
2022-08-01T19:54:35.134Z,98276.22
2022-08-01T19:57:07.367Z,98286.81
2022-08-01T19:59:37.167Z,98277.31
2022-08-01T20:02:07.141Z,98276.22
2022-08-01T20:04:35.943Z,98281.78
2022-08-01T20:07:04.830Z,98283.66
2022-08-01T20:09:34.403Z,98287.06
2022-08-01T20:12:03.055Z,98284.31
2022-08-01T20:14:31.505Z,98290.06
2022-08-01T20:16:59.926Z,98292.38
2022-08-01T20:19:30.655Z,98292.94
2022-08-01T20:22:03.656Z,98301.63
2022-08-01T20:24:39.609Z,98300.41
2022-08-01T20:27:10.493Z,98301.91
2022-08-01T20:29:39.273Z,98305.81
2022-08-01T20:32:08.344Z,98299.59
2022-08-01T20:34:40.724Z,98308.06
2022-08-01T20:37:12.881Z,98303.78
2022-08-01T20:39:43.537Z,98300.88
2022-08-01T20:42:12.779Z,98300.59
2022-08-01T20:44:41.277Z,98299.22
2022-08-01T20:47:10.321Z,98295.31
2022-08-01T20:49:40.495Z,98293.16
2022-08-01T20:52:11.928Z,98288.88
2022-08-01T20:54:42.387Z,98290.09
2022-08-01T20:57:13.674Z,98292.78
2022-08-01T20:59:56.778Z,98294.59
2022-08-01T21:02:38.955Z,98297.72
2022-08-01T21:05:10.995Z,98298.00
2022-08-01T21:07:41.315Z,98294.22
2022-08-01T21:10:10.921Z,98295.31
2022-08-01T21:12:45.060Z,98291.72
2022-08-01T21:15:16.942Z,98301.78
2022-08-01T21:17:47.659Z,98299.16
2022-08-01T21:20:17.687Z,98307.28
2022-08-01T21:22:54.170Z,98314.06
2022-08-01T21:25:27.212Z,98319.53
2022-08-01T21:27:56.002Z,98322.50
2022-08-01T21:30:25.185Z,98318.91
2022-08-01T21:32:53.915Z,98322.63
2022-08-01T21:35:26.595Z,98319.34
2022-08-01T21:37:55.165Z,98323.16
2022-08-01T21:40:24.704Z,98319.28
2022-08-01T21:42:54.280Z,98323.91
2022-08-01T21:45:25.025Z,98319.72
2022-08-01T21:47:53.564Z,98324.09
2022-08-01T21:50:25.359Z,98333.78
2022-08-01T21:53:05.494Z,98334.88
2022-08-01T21:55:38.297Z,98335.50
2022-08-01T21:58:33.156Z,98338.25
2022-08-01T22:01:11.400Z,98340.28
2022-08-01T22:03:45.813Z,98332.66
2022-08-01T22:06:17.361Z,98321.69
2022-08-01T22:08:50.889Z,98315.94
2022-08-01T22:11:21.455Z,98331.63
2022-08-01T22:13:51.181Z,98325.66
2022-08-01T22:16:19.729Z,98323.69
2022-08-01T22:18:48.139Z,98320.44
2022-08-01T22:21:18.233Z,98314.78
2022-08-01T22:23:46.719Z,98318.78
2022-08-01T22:26:15.242Z,98312.75
2022-08-01T22:28:43.709Z,98312.09
2022-08-01T22:31:12.192Z,98307.72
2022-08-01T22:33:41.014Z,98307.06
2022-08-01T22:36:09.511Z,98311.44
2022-08-01T22:38:39.466Z,98319.72
2022-08-01T22:41:10.538Z,98319.50
2022-08-01T22:43:43.090Z,98313.63
2022-08-01T22:46:18.825Z,98330.41
2022-08-01T22:48:50.253Z,98325.28
2022-08-01T22:51:30.777Z,98320.94
2022-08-01T22:54:06.289Z,98324.91
2022-08-01T22:56:39.292Z,98322.97
2022-08-01T22:59:13.603Z,98318.88
2022-08-01T23:01:48.014Z,98317.31
2022-08-01T23:04:33.171Z,98330.81
2022-08-01T23:07:06.660Z,98330.34
2022-08-01T23:09:39.324Z,98335.94
2022-08-01T23:12:24.547Z,98326.63
2022-08-01T23:14:54.583Z,98327.75
2022-08-01T23:17:27.733Z,98331.63
2022-08-01T23:20:00.113Z,98326.63
2022-08-01T23:22:32.583Z,98331.38
2022-08-01T23:25:06.448Z,98340.09
2022-08-01T23:27:51.689Z,98325.69
2022-08-01T23:30:31.721Z,98331.19
2022-08-01T23:33:00.317Z,98340.28
2022-08-01T23:35:29.038Z,98335.72
2022-08-01T23:38:01.932Z,98336.69
2022-08-01T23:40:33.264Z,98335.50
2022-08-01T23:43:01.929Z,98332.19
2022-08-01T23:46:02.015Z,98331.06
2022-08-01T23:48:19.070Z,98333.75
2022-08-01T23:50:47.898Z,98333.56
2022-08-01T23:53:16.665Z,98334.31
2022-08-01T23:55:46.643Z,98329.38
2022-08-01T23:58:15.124Z,98327.06
